Aérodrome :
LOGIN :

S'inscrire | Disclaimer

   EN    FR    IT 

 










Légende :    VFR   VFR Marginal   IFR   IFR Intensif   IFR Très Intensif
Visi : 
Plafond : 
>= 8 km
>= 3000ft
5 à 8 km
1000 à 3000 ft
1500m à 5 km
500 à 1000 ft
800 à 1500m
200 à 500 ft
< 800m
< 200 ft
Symboles :   Orages  Brouillard  Fortes neiges  Fortes précipitations  Vent > 20 kt
SIGMETs :   Divers  Orages  Givrage  Turbulence  Onde Orograph.  Cendres Volcan.







- Altitude de l'aérodrome : 117 ft
- Code IATA : NWI
- Voir les cartes d'approche


EGSH - Norwich

DERNIER METAR :
  • 182150Z AUTO 11003KT 9999 NCD 15/13 Q1020

METARs EXPIRÉS :
  • 182120Z AUTO 09004KT 9999 NCD 15/12 Q1020
  • 182050Z AUTO 11004KT 9999 NCD 16/12 Q1019
  • 182020Z 10004KT CAVOK 17/12 Q1019 NOSIG
  • 181950Z 10005KT CAVOK 17/12 Q1019 NOSIG
  • 181920Z 10006KT CAVOK 18/12 Q1019 NOSIG

TAF TAF EGSH
Valide du 18 à 21h jusqu'au 19 à 00h UTC


181956Z 1821/1824 10005KT 9999 FEW045
ATIS : +44 1603 420 640
Pas de NOTAMs connus pour ce terrain.



MET'MAP, la Météo Aéronautique d'un coup d'oeil ! - Copyright ORBIFLY Décembre 2007 - Disclaimer

ORBIFLY MET'MAP TEAM :

Programmation & Développement : Alexandra Zaïnal
Conception & Développement : Baudouin d'Aumeries
Co-Programmation & Développement : Marc-Olivier Méhu
Soutien technique & logistique : Manuel Goepfert

Contact : metmap@orbifly.com




SOURCES & CREDITS :

   NOAA